createdAt,value
2023-01-17T00:02:21.565Z,95047.41
2023-01-17T00:05:07.482Z,95046.16
2023-01-17T00:07:54.063Z,95049.27
2023-01-17T00:10:26.645Z,95060.15
2023-01-17T00:13:02.861Z,95052.69
2023-01-17T00:15:32.585Z,95051.18
2023-01-17T00:17:59.468Z,95042.16
2023-01-17T00:20:48.376Z,95043.15
2023-01-17T00:23:39.815Z,95034.48
2023-01-17T00:26:12.901Z,95029.92
2023-01-17T00:28:41.164Z,95025.48
2023-01-17T00:31:19.759Z,95023.58
2023-01-17T00:33:46.675Z,95018.35
2023-01-17T00:36:14.614Z,95019.48
2023-01-17T00:38:41.748Z,95025.40
2023-01-17T00:41:14.164Z,95039.19
2023-01-17T00:43:59.591Z,95040.86
2023-01-17T00:49:46.690Z,95030.59
2023-01-17T00:52:32.090Z,95018.39
2023-01-17T00:55:17.435Z,95011.44
2023-01-17T00:58:04.295Z,95008.09
2023-01-17T01:00:50.150Z,95006.45
2023-01-17T01:03:35.755Z,94994.65
2023-01-17T01:06:25.095Z,94985.36
2023-01-17T01:09:10.683Z,94985.59
2023-01-17T01:12:05.473Z,94984.51
2023-01-17T01:14:51.564Z,94984.44
2023-01-17T01:17:43.661Z,94980.86
2023-01-17T01:20:29.735Z,94984.35
2023-01-17T01:23:15.035Z,94972.79
2023-01-17T01:26:15.914Z,94967.11
2023-01-17T01:29:01.471Z,94965.55
2023-01-17T01:31:46.804Z,94958.61
2023-01-17T01:34:19.761Z,94946.30
2023-01-17T01:36:46.756Z,94938.85
2023-01-17T01:39:13.695Z,94949.11
2023-01-17T01:41:40.959Z,94954.13
2023-01-17T01:44:45.946Z,94959.75
2023-01-17T01:47:25.494Z,94963.95
2023-01-17T01:49:55.335Z,94980.45
2023-01-17T01:52:30.295Z,94991.80
2023-01-17T01:55:04.265Z,94981.92
2023-01-17T01:57:37.681Z,94980.45
2023-01-17T02:00:22.744Z,94972.01
2023-01-17T02:02:55.948Z,94968.77
2023-01-17T02:05:24.997Z,94982.71
2023-01-17T02:08:07.345Z,94990.73
2023-01-17T02:10:37.030Z,94999.94
2023-01-17T02:13:04.894Z,94998.05
2023-01-17T02:15:45.563Z,95001.38
2023-01-17T02:18:20.808Z,94997.83
2023-01-17T02:20:47.655Z,94982.12
2023-01-17T02:23:36.537Z,94977.18
2023-01-17T02:26:42.080Z,94973.75
2023-01-17T02:29:41.837Z,94966.48
2023-01-17T02:32:27.078Z,94968.58
2023-01-17T02:35:16.518Z,94971.98
2023-01-17T02:38:06.729Z,94973.65
2023-01-17T02:40:53.940Z,94969.79
2023-01-17T02:43:25.655Z,94954.93
2023-01-17T02:45:52.459Z,94951.22
2023-01-17T02:48:23.803Z,94946.93
2023-01-17T02:51:12.559Z,94953.38
2023-01-17T02:54:19.656Z,94956.83
2023-01-17T02:56:58.955Z,94959.94
2023-01-17T02:59:44.138Z,94961.20
2023-01-17T03:02:17.652Z,94958.63
2023-01-17T03:04:50.951Z,94962.84
2023-01-17T03:07:23.252Z,94959.73
2023-01-17T03:09:55.629Z,94960.59
2023-01-17T03:12:22.380Z,94954.94
2023-01-17T03:14:49.126Z,94956.14
2023-01-17T03:17:26.223Z,94947.05
2023-01-17T03:19:55.613Z,94949.75
2023-01-17T03:22:23.258Z,94947.77
2023-01-17T03:24:50.249Z,94944.84
2023-01-17T03:27:16.995Z,94940.86
2023-01-17T03:29:43.787Z,94937.39
2023-01-17T03:32:10.580Z,94936.40
2023-01-17T03:34:42.695Z,94934.58
2023-01-17T03:37:09.436Z,94936.17
2023-01-17T03:39:36.299Z,94933.83
2023-01-17T03:42:04.380Z,94928.14
2023-01-17T03:44:31.269Z,94921.60
2023-01-17T03:46:57.983Z,94915.47
2023-01-17T03:49:24.761Z,94916.80
2023-01-17T03:51:51.622Z,94917.98
2023-01-17T03:54:20.748Z,94917.02
2023-01-17T03:56:56.231Z,94911.85
2023-01-17T03:59:29.507Z,94917.15
2023-01-17T04:01:56.330Z,94920.48
2023-01-17T04:04:25.159Z,94923.92
2023-01-17T04:06:52.256Z,94922.37
2023-01-17T04:09:19.152Z,94923.94
2023-01-17T04:11:50.244Z,94924.05
2023-01-17T04:14:17.166Z,94926.81
2023-01-17T04:16:44.321Z,94929.34
2023-01-17T04:19:14.502Z,94930.54
2023-01-17T04:21:41.281Z,94928.77
2023-01-17T04:24:08.235Z,94917.16
2023-01-17T04:26:37.400Z,94917.70
2023-01-17T04:29:13.145Z,94921.72
2023-01-17T04:31:41.163Z,94922.18
2023-01-17T04:34:16.041Z,94922.59
2023-01-17T04:36:42.935Z,94925.75
2023-01-17T04:39:09.894Z,94927.60
2023-01-17T04:41:37.339Z,94929.00
2023-01-17T04:44:04.272Z,94934.77
2023-01-17T04:46:31.519Z,94931.58
2023-01-17T04:48:59.944Z,94932.72
2023-01-17T04:51:26.870Z,94927.14
2023-01-17T04:53:53.794Z,94926.59
2023-01-17T04:59:02.328Z,94933.04
2023-01-17T05:01:33.680Z,94930.04
2023-01-17T05:04:00.628Z,94922.91
2023-01-17T05:06:29.192Z,94916.70
2023-01-17T05:08:56.100Z,94912.95
2023-01-17T05:11:23.146Z,94917.80
2023-01-17T05:13:50.028Z,94918.36
2023-01-17T05:16:20.042Z,94915.15
2023-01-17T05:18:51.335Z,94922.39
2023-01-17T05:21:18.234Z,94922.41
2023-01-17T05:23:45.415Z,94919.34
2023-01-17T05:26:15.570Z,94919.85
2023-01-17T05:28:50.884Z,94922.85
2023-01-17T05:31:17.996Z,94921.31
2023-01-17T05:33:44.951Z,94920.34
2023-01-17T05:36:12.313Z,94923.20
2023-01-17T05:38:42.227Z,94918.54
2023-01-17T05:41:09.088Z,94914.38
2023-01-17T05:43:36.160Z,94921.73
2023-01-17T05:46:03.137Z,94905.83
2023-01-17T05:48:30.117Z,94901.10
2023-01-17T05:50:58.393Z,94898.61
2023-01-17T05:53:25.383Z,94890.66
2023-01-17T05:55:52.320Z,94880.55
2023-01-17T05:58:20.981Z,94882.20
2023-01-17T06:00:50.203Z,94892.36
2023-01-17T06:03:17.598Z,94893.74
2023-01-17T06:05:44.576Z,94901.86
2023-01-17T06:08:11.415Z,94905.67
2023-01-17T06:10:38.353Z,94912.60
2023-01-17T06:13:11.632Z,94917.81
2023-01-17T06:15:38.911Z,94918.08
2023-01-17T06:18:10.865Z,94925.00
2023-01-17T06:20:58.955Z,94927.21
2023-01-17T06:23:28.224Z,94929.21
2023-01-17T06:25:56.125Z,94928.39
2023-01-17T06:28:23.409Z,94919.96
2023-01-17T06:30:50.461Z,94923.84
2023-01-17T06:33:17.231Z,94922.62
2023-01-17T06:35:51.829Z,94931.20
2023-01-17T06:38:19.333Z,94938.41
2023-01-17T06:40:46.384Z,94940.39
2023-01-17T06:43:13.258Z,94949.27
2023-01-17T06:45:40.078Z,94953.73
2023-01-17T06:48:07.445Z,94945.39
2023-01-17T06:50:34.708Z,94954.40
2023-01-17T06:53:04.923Z,94960.66
2023-01-17T06:55:33.997Z,94968.11
2023-01-17T06:58:03.358Z,94980.35
2023-01-17T07:00:31.417Z,94978.23
2023-01-17T07:02:58.524Z,94984.97
2023-01-17T07:05:25.719Z,94991.61
2023-01-17T07:07:54.178Z,95000.80
2023-01-17T07:10:21.371Z,95005.60
2023-01-17T07:12:48.177Z,95000.05
2023-01-17T07:15:15.201Z,95001.52
2023-01-17T07:17:42.021Z,94997.55
2023-01-17T07:20:09.424Z,94996.56
2023-01-17T07:22:37.195Z,95002.67
2023-01-17T07:25:04.629Z,95001.73
2023-01-17T07:27:32.920Z,95005.27
2023-01-17T07:29:59.804Z,95004.23
2023-01-17T07:32:27.679Z,94999.80
2023-01-17T07:34:56.874Z,94992.73
2023-01-17T07:37:25.517Z,94994.42
2023-01-17T07:39:56.020Z,94998.61
2023-01-17T07:42:24.194Z,95006.66
2023-01-17T07:44:52.826Z,95010.50
2023-01-17T07:47:19.748Z,95015.84
2023-01-17T07:49:46.598Z,95016.52
2023-01-17T07:52:13.398Z,95021.07
2023-01-17T07:54:42.295Z,95026.00
2023-01-17T07:57:11.585Z,95022.17
2023-01-17T07:59:38.507Z,95011.77
2023-01-17T08:02:05.695Z,95003.08
2023-01-17T08:04:34.886Z,94999.55
2023-01-17T08:07:03.355Z,94996.84
2023-01-17T08:09:30.585Z,94995.14
2023-01-17T08:11:57.791Z,95004.38
2023-01-17T08:14:25.091Z,94999.86
2023-01-17T08:16:52.728Z,94990.58
2023-01-17T08:19:19.865Z,94999.40
2023-01-17T08:21:47.055Z,95005.36
2023-01-17T08:24:14.058Z,95008.23
2023-01-17T08:26:40.970Z,95013.23
2023-01-17T08:29:08.578Z,95011.49
2023-01-17T08:31:36.106Z,95002.18
2023-01-17T08:34:04.408Z,95006.67
2023-01-17T08:36:31.472Z,95008.67
2023-01-17T08:38:58.563Z,95010.08
2023-01-17T08:41:28.747Z,95012.44
2023-01-17T08:43:56.025Z,95008.45
2023-01-17T08:46:23.708Z,95006.84
2023-01-17T08:49:00.806Z,95012.69
2023-01-17T08:51:28.886Z,95023.27
2023-01-17T08:53:56.136Z,95031.83
2023-01-17T08:56:23.373Z,95028.90
2023-01-17T08:58:50.535Z,95027.94
2023-01-17T09:01:20.141Z,95025.31
2023-01-17T09:03:50.706Z,95034.69
2023-01-17T09:06:17.331Z,95033.10
2023-01-17T09:08:46.487Z,95033.39
2023-01-17T09:11:16.229Z,95031.84
2023-01-17T09:13:44.041Z,95024.09
2023-01-17T09:16:11.268Z,95017.97
2023-01-17T09:18:38.676Z,95011.87
2023-01-17T09:21:17.254Z,95012.00
2023-01-17T09:23:45.381Z,95016.03
2023-01-17T09:26:22.659Z,95020.58
2023-01-17T09:28:50.172Z,95027.21
2023-01-17T09:31:20.182Z,95035.05
2023-01-17T09:33:51.637Z,95038.92
2023-01-17T09:36:19.339Z,95042.06
2023-01-17T09:38:46.428Z,95044.04
2023-01-17T09:41:59.046Z,95037.14
2023-01-17T09:44:36.612Z,95040.16
2023-01-17T09:47:14.121Z,95046.23
2023-01-17T09:49:43.816Z,95051.36
2023-01-17T09:52:17.625Z,95058.23
2023-01-17T09:54:47.545Z,95062.27
2023-01-17T09:57:41.866Z,95067.52
2023-01-17T10:00:12.456Z,95066.27
2023-01-17T10:02:58.380Z,95051.84
2023-01-17T10:05:37.365Z,95037.33
2023-01-17T10:08:07.050Z,95055.21
2023-01-17T10:10:40.867Z,95057.36
2023-01-17T10:13:16.690Z,95064.65
2023-01-17T10:15:49.277Z,95071.70
2023-01-17T10:18:31.573Z,95067.05
2023-01-17T10:21:27.170Z,95064.63
2023-01-17T10:24:15.798Z,95062.56
2023-01-17T10:26:52.090Z,95055.83
2023-01-17T10:29:22.628Z,95047.42
2023-01-17T10:31:57.503Z,95047.06
2023-01-17T10:34:32.352Z,95046.67
2023-01-17T10:37:31.427Z,95052.92
2023-01-17T10:40:13.390Z,95059.10
2023-01-17T10:42:54.224Z,95058.92
2023-01-17T10:45:27.806Z,95053.78
2023-01-17T10:48:07.190Z,95048.53
2023-01-17T10:50:52.677Z,95048.46
2023-01-17T10:54:02.023Z,95044.50
2023-01-17T10:56:30.368Z,95025.56
2023-01-17T10:59:16.823Z,95025.42
2023-01-17T11:01:44.672Z,95021.48
2023-01-17T11:04:22.171Z,95016.00
2023-01-17T11:07:18.555Z,95009.54
2023-01-17T11:09:51.545Z,95014.20
2023-01-17T11:12:46.595Z,95011.19
2023-01-17T11:15:17.293Z,95004.77
2023-01-17T11:17:52.290Z,95002.88
2023-01-17T11:20:40.552Z,94998.51
2023-01-17T11:23:30.118Z,95002.17
2023-01-17T11:26:02.072Z,95002.57
2023-01-17T11:28:34.399Z,94993.30
2023-01-17T11:31:20.811Z,94993.09
2023-01-17T11:34:06.123Z,94997.10
2023-01-17T11:36:35.201Z,95003.81
2023-01-17T11:39:21.572Z,95007.67
2023-01-17T11:41:48.355Z,95018.08
2023-01-17T11:44:35.543Z,95011.60
2023-01-17T11:47:09.488Z,95015.99
2023-01-17T11:49:36.825Z,95018.02
2023-01-17T11:52:09.434Z,95019.95
2023-01-17T11:54:42.049Z,95023.86
2023-01-17T11:57:26.369Z,95018.14
2023-01-17T12:00:01.315Z,95022.40
2023-01-17T12:02:31.345Z,95028.27
2023-01-17T12:05:28.537Z,95029.80
2023-01-17T12:08:17.195Z,95027.31
2023-01-17T12:10:53.024Z,95023.13
2023-01-17T12:13:54.785Z,95011.24
2023-01-17T12:16:38.729Z,95005.14
2023-01-17T12:19:15.548Z,95003.30
2023-01-17T12:22:05.650Z,95003.54
2023-01-17T12:25:01.623Z,95012.21
2023-01-17T12:27:52.219Z,95014.89
2023-01-17T12:30:30.278Z,95010.90
2023-01-17T12:33:03.315Z,94998.96
2023-01-17T12:35:33.232Z,95001.24
2023-01-17T12:38:23.652Z,94995.75
2023-01-17T12:41:05.368Z,94994.63
2023-01-17T12:43:43.653Z,94991.85
2023-01-17T12:46:38.112Z,94989.34
2023-01-17T12:49:25.726Z,94988.96
2023-01-17T12:51:58.953Z,94997.65
2023-01-17T12:54:41.254Z,94995.01
2023-01-17T12:57:17.895Z,95002.30
2023-01-17T13:00:03.308Z,94999.66
2023-01-17T13:02:48.784Z,94999.05
2023-01-17T13:05:24.128Z,94999.14
2023-01-17T13:08:01.587Z,95000.73
2023-01-17T13:10:44.397Z,95001.41
2023-01-17T13:13:25.777Z,95006.27
2023-01-17T13:16:00.101Z,95012.76
2023-01-17T13:18:29.214Z,95023.98
2023-01-17T13:21:11.033Z,95034.98
2023-01-17T13:24:03.235Z,95048.45
2023-01-17T13:26:54.887Z,95059.96
2023-01-17T13:29:57.049Z,95056.20
2023-01-17T13:32:41.324Z,95052.95
2023-01-17T13:35:41.428Z,95058.52
2023-01-17T13:38:36.427Z,95053.02
2023-01-17T13:41:21.818Z,95046.92
2023-01-17T13:44:07.284Z,95039.70
2023-01-17T13:46:55.992Z,95042.02
2023-01-17T13:49:30.841Z,95029.48
2023-01-17T13:52:04.195Z,95021.01
2023-01-17T13:54:33.387Z,95012.96
2023-01-17T13:57:27.907Z,95004.10
2023-01-17T13:59:59.840Z,95003.02
2023-01-17T14:02:32.671Z,95008.34
2023-01-17T14:05:22.826Z,95016.78
2023-01-17T14:07:58.218Z,95021.27
2023-01-17T14:10:28.103Z,95021.56
2023-01-17T14:12:55.495Z,95025.20
2023-01-17T14:15:34.273Z,95033.17
2023-01-17T14:18:03.904Z,95043.23
2023-01-17T14:20:39.891Z,95050.59
2023-01-17T14:23:36.207Z,95055.65
2023-01-17T14:26:21.906Z,95057.81
2023-01-17T14:28:48.833Z,95061.38
2023-01-17T14:31:19.103Z,95057.23
2023-01-17T14:33:48.607Z,95072.33
2023-01-17T14:36:24.474Z,95076.41
2023-01-17T14:38:51.327Z,95076.33
2023-01-17T14:41:28.352Z,95078.31
2023-01-17T14:43:59.077Z,95084.75
2023-01-17T14:46:30.403Z,95086.59
2023-01-17T14:49:03.461Z,95081.24
2023-01-17T14:51:34.533Z,95079.23
2023-01-17T14:54:04.744Z,95081.41
2023-01-17T14:56:35.482Z,95073.48
2023-01-17T14:59:19.599Z,95077.90
2023-01-17T15:02:06.734Z,95079.25
2023-01-17T15:04:38.522Z,95078.61
2023-01-17T15:07:06.322Z,95078.70
2023-01-17T15:09:38.042Z,95083.45
2023-01-17T15:12:09.806Z,95082.56
2023-01-17T15:14:41.206Z,95080.33
2023-01-17T15:17:14.683Z,95079.71
2023-01-17T15:19:52.292Z,95074.48
2023-01-17T15:22:19.898Z,95074.83
2023-01-17T15:24:47.430Z,95076.75
2023-01-17T15:27:17.864Z,95076.17
2023-01-17T15:29:46.958Z,95084.96
2023-01-17T15:32:27.416Z,95083.52
2023-01-17T15:34:54.244Z,95076.60
2023-01-17T15:37:39.981Z,95084.80
2023-01-17T15:40:23.248Z,95092.12
2023-01-17T15:42:54.097Z,95093.68
2023-01-17T15:45:26.662Z,95091.10
2023-01-17T15:47:53.620Z,95076.17
2023-01-17T15:50:24.709Z,95073.08
2023-01-17T15:52:56.263Z,95076.91
2023-01-17T15:55:33.590Z,95076.60
2023-01-17T15:58:02.060Z,95071.63
2023-01-17T16:00:36.820Z,95063.20
2023-01-17T16:03:28.798Z,95081.42
2023-01-17T16:06:00.480Z,95089.26
2023-01-17T16:08:39.201Z,95102.77
2023-01-17T16:11:08.067Z,95098.86
2023-01-17T16:13:41.661Z,95097.41
2023-01-17T16:16:15.249Z,95090.70
2023-01-17T16:18:42.729Z,95092.46
2023-01-17T16:21:30.535Z,95089.92
2023-01-17T16:23:59.147Z,95076.38
2023-01-17T16:26:28.366Z,95079.71
2023-01-17T16:28:55.368Z,95082.81
2023-01-17T16:31:22.208Z,95080.38
2023-01-17T16:33:50.058Z,95086.17
2023-01-17T16:36:20.623Z,95082.80
2023-01-17T16:38:58.980Z,95087.11
2023-01-17T16:41:25.729Z,95082.24
2023-01-17T16:44:04.851Z,95072.80
2023-01-17T16:46:32.034Z,95070.05
2023-01-17T16:49:00.158Z,95078.80
2023-01-17T16:51:27.065Z,95088.00
2023-01-17T16:53:54.001Z,95083.23
2023-01-17T16:56:21.203Z,95070.16
2023-01-17T16:58:47.970Z,95059.77
2023-01-17T17:01:22.004Z,95057.03
2023-01-17T17:03:49.037Z,95057.91
2023-01-17T17:06:22.032Z,95061.63
2023-01-17T17:08:48.751Z,95053.31
2023-01-17T17:11:21.198Z,95044.48
2023-01-17T17:13:49.485Z,95033.14
2023-01-17T17:16:24.094Z,95023.58
2023-01-17T17:18:58.190Z,95015.58
2023-01-17T17:21:25.735Z,95009.75
2023-01-17T17:23:57.737Z,94994.73
2023-01-17T17:26:33.596Z,94994.33
2023-01-17T17:29:01.560Z,95004.11
2023-01-17T17:31:28.724Z,95014.15
2023-01-17T17:34:00.393Z,95020.69
2023-01-17T17:36:27.679Z,95015.43
2023-01-17T17:38:55.992Z,95018.61
2023-01-17T17:41:25.444Z,95013.14
2023-01-17T17:43:53.187Z,95010.11
2023-01-17T17:46:23.455Z,95009.19
2023-01-17T17:48:50.256Z,95015.91
2023-01-17T17:51:26.524Z,95002.73
2023-01-17T17:53:55.091Z,94984.42
2023-01-17T17:56:23.162Z,94979.97
2023-01-17T17:58:50.427Z,94985.41
2023-01-17T18:01:37.486Z,94983.88
2023-01-17T18:04:06.843Z,94980.09
2023-01-17T18:06:34.914Z,94986.95
2023-01-17T18:09:03.135Z,94984.83
2023-01-17T18:11:30.751Z,94989.29
2023-01-17T18:14:00.946Z,94993.46
2023-01-17T18:16:33.268Z,94992.27
2023-01-17T18:19:03.940Z,94987.85
2023-01-17T18:21:36.959Z,94976.30
2023-01-17T18:24:05.302Z,94974.69
2023-01-17T18:26:39.943Z,94965.52
2023-01-17T18:29:09.119Z,94957.72
2023-01-17T18:31:36.193Z,94951.51
2023-01-17T18:34:07.085Z,94944.21
2023-01-17T18:36:35.071Z,94939.53
2023-01-17T18:39:08.879Z,94936.64
2023-01-17T18:41:35.797Z,94932.52
2023-01-17T18:44:06.930Z,94935.04
2023-01-17T18:46:37.829Z,94928.85
2023-01-17T18:49:05.135Z,94919.98
2023-01-17T18:51:34.355Z,94909.48
2023-01-17T18:54:06.672Z,94902.05
2023-01-17T18:56:46.827Z,94893.42
2023-01-17T18:59:18.991Z,94887.96
2023-01-17T19:01:48.662Z,94875.86
2023-01-17T19:04:17.483Z,94877.02
2023-01-17T19:06:49.877Z,94871.44
2023-01-17T19:09:19.566Z,94872.26
2023-01-17T19:11:46.860Z,94878.89
2023-01-17T19:14:15.223Z,94875.20
2023-01-17T19:16:43.268Z,94871.55
2023-01-17T19:19:14.855Z,94868.27
2023-01-17T19:21:45.611Z,94873.09
2023-01-17T19:24:13.861Z,94865.36
2023-01-17T19:26:42.585Z,94859.25
2023-01-17T19:29:13.320Z,94858.21
2023-01-17T19:31:43.903Z,94849.99
2023-01-17T19:34:18.329Z,94852.27
2023-01-17T19:36:50.124Z,94855.02
2023-01-17T19:39:17.279Z,94849.45
2023-01-17T19:41:47.187Z,94848.20
2023-01-17T19:44:16.965Z,94848.91
2023-01-17T19:46:45.601Z,94848.59
2023-01-17T19:49:21.071Z,94853.98
2023-01-17T19:51:49.992Z,94854.04
2023-01-17T19:54:19.358Z,94854.33
2023-01-17T19:56:48.815Z,94853.68
2023-01-17T19:59:18.493Z,94848.81
2023-01-17T20:01:48.310Z,94841.04
2023-01-17T20:04:20.540Z,94826.11
2023-01-17T20:06:47.446Z,94827.10
2023-01-17T20:09:17.597Z,94825.01
2023-01-17T20:11:51.607Z,94831.88
2023-01-17T20:14:21.140Z,94827.50
2023-01-17T20:16:49.188Z,94816.86
2023-01-17T20:19:20.527Z,94815.91
2023-01-17T20:21:47.791Z,94807.79
2023-01-17T20:24:18.885Z,94806.25
2023-01-17T20:26:45.660Z,94811.79
2023-01-17T20:29:16.355Z,94812.20
2023-01-17T20:31:48.346Z,94809.67
2023-01-17T20:34:19.903Z,94810.72
2023-01-17T20:36:47.502Z,94810.90
2023-01-17T20:39:15.525Z,94809.61
2023-01-17T20:41:45.736Z,94804.83
2023-01-17T20:44:15.979Z,94797.41
2023-01-17T20:46:45.893Z,94796.55
2023-01-17T20:49:20.663Z,94791.52
2023-01-17T20:51:48.193Z,94789.33
2023-01-17T20:54:17.887Z,94786.50
2023-01-17T20:56:49.289Z,94781.72
2023-01-17T20:59:20.890Z,94777.56
2023-01-17T21:01:49.246Z,94772.58
2023-01-17T21:04:17.643Z,94772.81
2023-01-17T21:06:46.779Z,94771.29
2023-01-17T21:09:16.559Z,94766.05
2023-01-17T21:11:43.623Z,94750.63
2023-01-17T21:14:10.785Z,94744.30
2023-01-17T21:16:37.721Z,94739.53
2023-01-17T21:19:07.746Z,94738.05
2023-01-17T21:21:37.282Z,94728.63
2023-01-17T21:24:06.423Z,94726.83
2023-01-17T21:26:33.444Z,94719.66
2023-01-17T21:29:04.145Z,94723.52
2023-01-17T21:31:33.041Z,94720.42
2023-01-17T21:34:05.291Z,94716.15
2023-01-17T21:36:42.390Z,94718.11
2023-01-17T21:39:15.404Z,94709.58
2023-01-17T21:41:48.968Z,94712.20
2023-01-17T21:44:21.165Z,94706.41
2023-01-17T21:46:55.996Z,94702.80
2023-01-17T21:49:27.031Z,94708.53
2023-01-17T21:51:53.764Z,94710.86
2023-01-17T21:54:42.559Z,94712.66
2023-01-17T21:57:29.688Z,94704.35
2023-01-17T21:59:57.428Z,94692.62
2023-01-17T22:02:24.513Z,94689.38
2023-01-17T22:04:57.635Z,94698.11
2023-01-17T22:07:26.712Z,94696.56
2023-01-17T22:09:54.058Z,94696.38
2023-01-17T22:12:20.927Z,94700.81
2023-01-17T22:14:50.212Z,94697.21
2023-01-17T22:17:17.196Z,94692.69
2023-01-17T22:19:45.433Z,94689.42
2023-01-17T22:22:12.410Z,94679.65
2023-01-17T22:24:39.945Z,94667.05
2023-01-17T22:27:10.070Z,94668.38
2023-01-17T22:29:38.004Z,94670.55
2023-01-17T22:32:07.165Z,94670.20
2023-01-17T22:34:34.405Z,94680.58
2023-01-17T22:37:03.673Z,94679.95
2023-01-17T22:39:30.844Z,94682.51
2023-01-17T22:41:58.104Z,94686.77
2023-01-17T22:44:25.077Z,94690.25
2023-01-17T22:46:51.903Z,94686.20
2023-01-17T22:49:22.959Z,94690.12
2023-01-17T22:51:52.426Z,94679.40
2023-01-17T22:54:19.226Z,94681.95
2023-01-17T22:56:46.247Z,94685.30
2023-01-17T22:59:13.191Z,94680.52
2023-01-17T23:01:40.110Z,94681.75
2023-01-17T23:04:11.299Z,94672.71
2023-01-17T23:06:40.529Z,94672.77
2023-01-17T23:09:13.838Z,94680.48
2023-01-17T23:11:49.319Z,94688.41
2023-01-17T23:14:24.416Z,94688.77
2023-01-17T23:17:18.328Z,94692.36
2023-01-17T23:19:47.629Z,94690.98
2023-01-17T23:22:19.955Z,94690.66
2023-01-17T23:24:49.554Z,94692.38
2023-01-17T23:27:39.401Z,94682.64
2023-01-17T23:30:19.834Z,94685.45
2023-01-17T23:32:58.376Z,94685.29
2023-01-17T23:35:33.941Z,94683.08
2023-01-17T23:38:19.854Z,94683.18
2023-01-17T23:41:05.338Z,94675.55
2023-01-17T23:43:37.886Z,94674.10
2023-01-17T23:46:05.115Z,94680.23
2023-01-17T23:48:33.692Z,94680.82
2023-01-17T23:51:08.542Z,94677.88
2023-01-17T23:53:37.459Z,94667.02
2023-01-17T23:56:14.212Z,94672.77
2023-01-17T23:58:41.134Z,94669.19
